createdAt,value
2023-10-22T00:01:15.329Z,17.90
2023-10-22T00:06:21.203Z,18.10
2023-10-22T00:11:26.813Z,23.70
2023-10-22T00:21:36.703Z,14.90
2023-10-22T00:26:42.357Z,14.80
2023-10-22T00:31:48.111Z,14.70
2023-10-22T00:36:53.746Z,15.60
2023-10-22T00:47:04.058Z,17.00
2023-10-22T00:52:11.941Z,17.80
2023-10-22T00:57:18.639Z,15.40
2023-10-22T01:02:26.245Z,16.10
2023-10-22T01:07:32.011Z,16.80
2023-10-22T01:12:39.575Z,15.90
2023-10-22T01:17:45.370Z,15.00
2023-10-22T01:22:51.171Z,18.20
2023-10-22T01:27:59.539Z,16.10
2023-10-22T01:33:05.419Z,22.30
2023-10-22T01:38:12.389Z,18.00
2023-10-22T01:43:18.051Z,15.20
2023-10-22T01:48:23.767Z,18.00
2023-10-22T01:53:29.538Z,19.10
2023-10-22T01:58:35.343Z,17.20
2023-10-22T02:03:42.107Z,14.40
2023-10-22T02:08:49.579Z,13.10
2023-10-22T02:13:55.346Z,11.50
2023-10-22T02:19:01.571Z,12.00
2023-10-22T02:24:08.067Z,11.50
2023-10-22T02:29:14.031Z,11.50
2023-10-22T02:34:19.666Z,9.80
2023-10-22T02:39:25.329Z,10.10
2023-10-22T02:49:35.072Z,8.10
2023-10-22T02:59:45.396Z,10.00
2023-10-22T03:04:51.607Z,9.70
2023-10-22T03:09:57.267Z,9.20
2023-10-22T03:15:03.219Z,8.20
2023-10-22T03:20:11.917Z,8.70
2023-10-22T03:25:17.725Z,9.70
2023-10-22T03:30:23.520Z,10.70
2023-10-22T03:35:29.229Z,11.10
2023-10-22T03:40:37.157Z,13.40
2023-10-22T03:45:42.832Z,10.30
2023-10-22T03:55:53.718Z,11.70
2023-10-22T04:00:59.529Z,14.10
2023-10-22T04:06:05.385Z,12.40
2023-10-22T04:11:11.066Z,11.20
2023-10-22T04:16:19.187Z,10.60
2023-10-22T04:21:24.943Z,9.60
2023-10-22T04:26:30.616Z,8.60
2023-10-22T04:31:37.773Z,8.10
2023-10-22T04:36:44.218Z,8.90
2023-10-22T04:41:50.022Z,6.80
2023-10-22T04:46:55.852Z,10.30
2023-10-22T04:52:01.566Z,11.50
2023-10-22T04:57:07.695Z,11.50
2023-10-22T05:02:13.351Z,17.60
2023-10-22T05:12:23.298Z,11.30
2023-10-22T05:17:29.138Z,13.00
2023-10-22T05:22:35.876Z,17.90
2023-10-22T05:27:41.548Z,13.00
2023-10-22T05:32:47.297Z,14.90
2023-10-22T05:37:53.310Z,10.20
2023-10-22T05:42:59.383Z,27.50
2023-10-22T05:48:05.407Z,18.50
2023-10-22T05:53:11.128Z,11.40
2023-10-22T06:03:20.960Z,12.80
2023-10-22T06:08:27.598Z,9.20
2023-10-22T06:13:34.284Z,11.00
2023-10-22T06:18:40.235Z,12.40
2023-10-22T06:23:46.173Z,16.70
2023-10-22T06:28:52.385Z,16.30
2023-10-22T06:33:58.238Z,14.30
2023-10-22T06:39:03.937Z,131.50
2023-10-22T06:44:09.780Z,180.00
2023-10-22T06:49:15.419Z,69.20
2023-10-22T06:54:21.367Z,21.80
2023-10-22T06:59:27.048Z,19.00
2023-10-22T07:04:32.838Z,18.20
2023-10-22T07:09:38.568Z,17.50
2023-10-22T07:14:44.363Z,44.30
2023-10-22T07:19:50.076Z,17.50
2023-10-22T07:29:59.816Z,13.60
2023-10-22T07:35:06.779Z,17.60
2023-10-22T07:40:14.704Z,20.80
2023-10-22T07:45:20.594Z,16.90
2023-10-22T07:50:26.651Z,14.10
2023-10-22T07:55:32.569Z,13.00
2023-10-22T08:00:38.312Z,13.00
2023-10-22T08:05:43.968Z,13.00
2023-10-22T08:10:49.727Z,14.10
2023-10-22T08:15:55.983Z,18.50
2023-10-22T08:21:05.736Z,19.60
2023-10-22T08:26:11.559Z,14.00
2023-10-22T08:31:17.295Z,12.30
2023-10-22T08:36:23.636Z,11.50
2023-10-22T08:41:33.835Z,10.70
2023-10-22T08:46:39.660Z,12.90
2023-10-22T08:51:45.697Z,10.70
2023-10-22T08:56:52.648Z,10.80
2023-10-22T09:01:58.769Z,7.40
2023-10-22T09:07:04.613Z,8.10
2023-10-22T09:12:11.803Z,9.10
2023-10-22T09:17:24.624Z,6.90
2023-10-22T09:22:30.884Z,6.80
2023-10-22T09:27:40.918Z,8.00
2023-10-22T09:32:53.317Z,10.30
2023-10-22T09:38:01.853Z,15.80
2023-10-22T09:43:08.021Z,15.90
2023-10-22T09:48:17.137Z,16.40
2023-10-22T09:53:28.857Z,14.70
2023-10-22T09:58:43.750Z,17.40
2023-10-22T10:03:52.078Z,14.20
2023-10-22T10:08:58.723Z,12.70
2023-10-22T10:14:14.698Z,14.60
2023-10-22T10:19:23.769Z,14.40
2023-10-22T10:24:34.157Z,13.00
2023-10-22T10:29:40.389Z,13.20
2023-10-22T10:34:48.921Z,10.90
2023-10-22T10:39:55.794Z,12.90
2023-10-22T10:45:10.047Z,10.30
2023-10-22T10:50:20.371Z,10.40
2023-10-22T10:55:36.655Z,15.30
2023-10-22T11:00:50.818Z,20.60
2023-10-22T11:06:04.190Z,24.90
2023-10-22T11:11:18.016Z,25.00
2023-10-22T11:16:23.999Z,22.80
2023-10-22T11:21:30.271Z,17.80
2023-10-22T11:26:36.410Z,15.50
2023-10-22T11:31:51.493Z,12.50
2023-10-22T11:37:03.277Z,14.40
2023-10-22T11:42:12.600Z,14.60
2023-10-22T11:47:32.503Z,12.00
2023-10-22T11:52:53.162Z,11.50
2023-10-22T11:58:00.294Z,8.50
2023-10-22T12:03:06.207Z,5.40
2023-10-22T12:08:12.119Z,5.30
2023-10-22T12:13:17.836Z,4.50
2023-10-22T12:18:24.931Z,4.10
2023-10-22T12:23:45.933Z,4.00
2023-10-22T12:34:07.454Z,3.40
2023-10-22T12:39:14.365Z,3.70
2023-10-22T12:44:23.083Z,3.70
2023-10-22T12:49:34.345Z,3.40
2023-10-22T12:54:42.631Z,3.10
2023-10-22T12:59:49.126Z,6.80
2023-10-22T13:04:54.993Z,5.60
2023-10-22T13:10:04.713Z,4.80
2023-10-22T13:15:12.247Z,4.70
2023-10-22T13:20:18.101Z,6.70
2023-10-22T13:25:25.142Z,7.10
2023-10-22T13:30:31.337Z,4.30
2023-10-22T13:35:37.586Z,5.60
2023-10-22T13:40:43.373Z,9.00
2023-10-22T13:45:49.270Z,4.30
2023-10-22T13:50:55.098Z,5.20
2023-10-22T13:56:01.615Z,8.70
2023-10-22T14:01:13.703Z,6.10
2023-10-22T14:06:19.984Z,6.00
2023-10-22T14:11:26.740Z,4.60
2023-10-22T14:16:32.615Z,4.30
2023-10-22T14:21:38.279Z,3.90
2023-10-22T14:31:48.158Z,5.80
2023-10-22T14:36:53.930Z,5.10
2023-10-22T14:41:59.710Z,6.10
2023-10-22T14:47:05.684Z,9.70
2023-10-22T14:52:11.928Z,6.90
2023-10-22T14:57:17.744Z,3.70
2023-10-22T15:02:23.666Z,3.70
2023-10-22T15:07:29.998Z,7.40
2023-10-22T15:12:35.875Z,5.80
2023-10-22T15:17:41.649Z,5.70
2023-10-22T15:22:47.524Z,5.70
2023-10-22T15:27:53.401Z,6.40
2023-10-22T15:32:59.939Z,6.40
2023-10-22T15:38:07.947Z,6.20
2023-10-22T15:43:13.900Z,8.70
2023-10-22T15:48:21.969Z,8.40
2023-10-22T15:53:27.994Z,7.60
2023-10-22T15:58:33.721Z,4.90
2023-10-22T16:08:45.088Z,7.40
2023-10-22T16:13:51.047Z,5.60
2023-10-22T16:18:58.995Z,5.30
2023-10-22T16:24:05.389Z,7.40
2023-10-22T16:29:11.644Z,5.60
2023-10-22T16:34:20.013Z,6.20
2023-10-22T16:39:28.107Z,9.70
2023-10-22T16:44:34.023Z,15.10
2023-10-22T16:49:39.885Z,15.00
2023-10-22T16:54:46.995Z,10.20
2023-10-22T16:59:53.111Z,10.90
2023-10-22T17:04:58.768Z,10.10
2023-10-22T17:15:10.326Z,7.70
2023-10-22T17:20:16.207Z,9.40
2023-10-22T17:25:23.735Z,8.80
2023-10-22T17:30:29.518Z,14.20
2023-10-22T17:35:35.420Z,14.80
2023-10-22T17:40:50.400Z,15.10
2023-10-22T17:46:00.745Z,15.00
2023-10-22T17:51:07.679Z,15.10
2023-10-22T17:56:13.972Z,14.80
2023-10-22T18:01:20.828Z,13.60
2023-10-22T18:06:30.897Z,13.40
2023-10-22T18:11:39.640Z,12.60
2023-10-22T18:16:47.119Z,14.90
2023-10-22T18:21:55.294Z,18.70
2023-10-22T18:27:01.550Z,18.80
2023-10-22T18:32:11.857Z,17.60
2023-10-22T18:37:17.833Z,20.70
2023-10-22T18:42:23.821Z,18.40
2023-10-22T18:47:32.043Z,17.90
2023-10-22T18:52:39.566Z,18.20
2023-10-22T18:57:48.020Z,19.70
2023-10-22T19:02:55.682Z,20.20
2023-10-22T19:08:01.736Z,16.30
2023-10-22T19:13:09.355Z,17.90
2023-10-22T19:18:22.394Z,18.70
2023-10-22T19:23:28.794Z,18.30
2023-10-22T19:28:36.455Z,25.70
2023-10-22T19:33:49.028Z,31.40
2023-10-22T19:38:55.730Z,35.10
2023-10-22T19:44:05.536Z,36.00
2023-10-22T19:49:14.382Z,33.00
2023-10-22T19:54:34.405Z,30.60
2023-10-22T19:59:48.593Z,32.90
2023-10-22T20:05:02.660Z,32.60
2023-10-22T20:10:31.407Z,29.30
2023-10-22T20:15:52.327Z,29.40
2023-10-22T20:21:15.937Z,29.40
2023-10-22T20:26:26.639Z,33.60
2023-10-22T20:31:34.700Z,29.70
2023-10-22T20:37:07.261Z,31.50
2023-10-22T20:42:13.636Z,29.90
2023-10-22T20:47:22.268Z,24.90
2023-10-22T20:52:28.405Z,21.80
2023-10-22T20:57:39.516Z,22.60
2023-10-22T21:02:45.565Z,25.00
2023-10-22T21:07:51.473Z,25.00
2023-10-22T21:18:02.052Z,22.10
2023-10-22T21:23:08.144Z,26.20
2023-10-22T21:28:18.391Z,26.40
2023-10-22T21:33:25.706Z,26.10
2023-10-22T21:38:31.591Z,25.50
2023-10-22T21:53:46.848Z,24.10
2023-10-22T21:58:52.594Z,34.30
2023-10-22T22:03:58.706Z,85.50
2023-10-22T22:09:11.997Z,59.30
2023-10-22T22:14:19.345Z,44.70
2023-10-22T22:19:27.394Z,37.70
2023-10-22T22:24:34.510Z,36.00
2023-10-22T22:29:40.352Z,41.60
2023-10-22T22:34:46.068Z,40.60
2023-10-22T22:39:51.936Z,40.10
2023-10-22T22:44:57.747Z,39.80
2023-10-22T22:50:03.534Z,34.20
2023-10-22T22:55:10.955Z,26.20
2023-10-22T23:00:18.447Z,21.90
2023-10-22T23:05:24.649Z,18.60
2023-10-22T23:10:30.371Z,17.00
2023-10-22T23:15:38.366Z,25.30
2023-10-22T23:20:44.737Z,21.70
2023-10-22T23:25:51.432Z,18.30
2023-10-22T23:30:57.216Z,18.20
2023-10-22T23:36:11.412Z,16.00
2023-10-22T23:41:17.077Z,15.20
2023-10-22T23:46:23.291Z,13.20
2023-10-22T23:51:29.103Z,11.50
2023-10-22T23:56:34.979Z,12.00
